Time;durP1;ratioP1;P1;durP2;ratioP2;P2;SDS_P1;SDS_P2;PMS_P1;PMS_P2;Temp;Humidity;BMP_temperature;BMP_pressure;BME280_temperature;BME280_humidity;BME280_pressure;Samples;Min_cycle;Max_cycle;Signal;HPM_P1;HPM_P2
2023/08/08 00:01:11;;;;;;;22.17;3.95;;;;;;;;;;5071245;28;20081;-53
2023/08/08 00:03:38;;;;;;;35.33;4.50;;;;;;;;;;5071736;28;20111;-52
2023/08/08 00:06:05;;;;;;;28.27;3.85;;;;;;;;;;5065680;28;20056;-49
2023/08/08 00:08:33;;;;;;;23.23;3.78;;;;;;;;;;5060675;28;20075;-50
2023/08/08 00:11:00;;;;;;;22.75;3.90;;;;;;;;;;5071757;28;20036;-53
2023/08/08 00:13:27;;;;;;;24.08;3.80;;;;;;;;;;5058771;28;20060;-52
2023/08/08 00:15:54;;;;;;;23.08;4.07;;;;;;;;;;5069598;28;20074;-50
2023/08/08 00:18:21;;;;;;;20.50;3.80;;;;;;;;;;5072283;28;20046;-49
2023/08/08 00:20:48;;;;;;;17.42;4.50;;;;;;;;;;5064431;28;20044;-47
2023/08/08 00:23:15;;;;;;;26.77;3.75;;;;;;;;;;5064954;28;20017;-48
2023/08/08 00:25:42;;;;;;;19.95;3.85;;;;;;;;;;5065417;28;20106;-47
2023/08/08 00:28:09;;;;;;;30.50;3.95;;;;;;;;;;5063476;28;20495;-49
2023/08/08 00:30:36;;;;;;;21.95;4.47;;;;;;;;;;5066823;28;20042;-48
2023/08/08 00:33:03;;;;;;;24.20;4.25;;;;;;;;;;5069490;28;20029;-49
2023/08/08 00:35:30;;;;;;;29.85;4.60;;;;;;;;;;5071815;28;20599;-50
2023/08/08 00:37:57;;;;;;;22.13;4.03;;;;;;;;;;5068883;28;20024;-47
2023/08/08 00:40:24;;;;;;;24.20;4.40;;;;;;;;;;5072398;28;20031;-47
2023/08/08 00:42:51;;;;;;;21.88;4.28;;;;;;;;;;5071012;28;20036;-49
2023/08/08 00:45:18;;;;;;;27.80;4.10;;;;;;;;;;5071848;28;20028;-48
2023/08/08 00:47:46;;;;;;;28.98;4.35;;;;;;;;;;5072073;28;20024;-47
2023/08/08 00:50:13;;;;;;;25.60;4.63;;;;;;;;;;5071881;28;20502;-48
2023/08/08 00:52:41;;;;;;;24.73;5.50;;;;;;;;;;5071699;28;20032;-49
2023/08/08 00:55:08;;;;;;;33.53;5.55;;;;;;;;;;5071355;28;20367;-51
2023/08/08 00:57:38;;;;;;;34.72;5.70;;;;;;;;;;5071885;28;20028;-48
2023/08/08 01:00:07;;;;;;;31.40;5.68;;;;;;;;;;5071745;28;20033;-46
2023/08/08 01:02:36;;;;;;;34.80;5.68;;;;;;;;;;5071690;28;20120;-47
2023/08/08 01:05:03;;;;;;;33.58;6.43;;;;;;;;;;5058134;28;20032;-53
2023/08/08 01:07:53;;;;;;;33.35;6.07;;;;;;;;;;5071658;28;20032;-52
2023/08/08 01:10:27;;;;;;;42.30;6.50;;;;;;;;;;5068874;28;20059;-49
2023/08/08 01:12:59;;;;;;;33.53;7.00;;;;;;;;;;5063391;28;20098;-47
2023/08/08 01:15:26;;;;;;;37.13;6.32;;;;;;;;;;5067359;28;20132;-49
2023/08/08 01:17:54;;;;;;;39.88;6.53;;;;;;;;;;5071320;28;20032;-48
2023/08/08 01:20:22;;;;;;;33.88;6.30;;;;;;;;;;5071402;28;20504;-47
2023/08/08 01:22:59;;;;;;;27.70;5.97;;;;;;;;;;5071592;28;20044;-49
2023/08/08 01:25:26;;;;;;;35.50;6.13;;;;;;;;;;5070829;28;20087;-48
2023/08/08 01:27:56;;;;;;;28.75;5.65;;;;;;;;;;5071267;28;20048;-48
2023/08/08 01:30:23;;;;;;;27.67;5.93;;;;;;;;;;5071317;28;20038;-49
2023/08/08 01:32:50;;;;;;;29.92;5.72;;;;;;;;;;5057353;28;20023;-50
2023/08/08 01:35:17;;;;;;;28.50;5.57;;;;;;;;;;5071249;28;20033;-48
2023/08/08 01:37:55;;;;;;;36.58;5.75;;;;;;;;;;5071163;28;20021;-52
2023/08/08 01:40:22;;;;;;;33.88;6.07;;;;;;;;;;5071694;28;20386;-49
2023/08/08 01:42:50;;;;;;;34.88;6.32;;;;;;;;;;5070706;28;20138;-50
2023/08/08 01:45:17;;;;;;;28.38;5.68;;;;;;;;;;5071613;28;20363;-48
2023/08/08 01:47:50;;;;;;;31.90;6.25;;;;;;;;;;5062181;28;20044;-49
2023/08/08 01:50:17;;;;;;;30.38;5.57;;;;;;;;;;5051578;28;20032;-49
2023/08/08 01:52:44;;;;;;;28.00;5.40;;;;;;;;;;5051449;28;20025;-52
2023/08/08 01:55:12;;;;;;;26.40;5.05;;;;;;;;;;5052103;28;20040;-52
2023/08/08 01:57:39;;;;;;;26.10;5.03;;;;;;;;;;5059951;28;20086;-54
2023/08/08 02:00:07;;;;;;;27.05;5.50;;;;;;;;;;5064912;28;20052;-52
2023/08/08 02:02:35;;;;;;;25.60;5.03;;;;;;;;;;5054265;28;20037;-52
2023/08/08 02:05:02;;;;;;;26.10;5.47;;;;;;;;;;5049810;28;20029;-56
2023/08/08 02:07:29;;;;;;;23.67;5.03;;;;;;;;;;5050096;28;20517;-52
2023/08/08 02:09:57;;;;;;;32.15;5.93;;;;;;;;;;5051279;28;20031;-49
2023/08/08 02:12:24;;;;;;;21.55;4.80;;;;;;;;;;5053892;28;20032;-52
2023/08/08 02:14:51;;;;;;;25.40;4.70;;;;;;;;;;5055446;28;20044;-50
2023/08/08 02:17:18;;;;;;;25.45;4.60;;;;;;;;;;5055338;28;20072;-49
2023/08/08 02:19:45;;;;;;;19.35;4.40;;;;;;;;;;5055320;28;20427;-52
2023/08/08 02:22:12;;;;;;;19.80;4.57;;;;;;;;;;5055357;28;20029;-49
2023/08/08 02:24:39;;;;;;;26.15;5.18;;;;;;;;;;5055041;28;20580;-50
2023/08/08 02:27:06;;;;;;;22.35;4.80;;;;;;;;;;5055016;28;20383;-51
2023/08/08 02:29:33;;;;;;;23.63;4.60;;;;;;;;;;5055126;28;20047;-49
2023/08/08 02:32:00;;;;;;;17.83;4.63;;;;;;;;;;5054979;28;20029;-50
2023/08/08 02:34:27;;;;;;;16.77;4.43;;;;;;;;;;5055085;28;20041;-49
2023/08/08 02:36:54;;;;;;;17.60;4.32;;;;;;;;;;5054948;28;20033;-50
2023/08/08 02:39:21;;;;;;;17.92;4.97;;;;;;;;;;5054989;28;20021;-50
2023/08/08 02:41:48;;;;;;;15.52;4.35;;;;;;;;;;5054850;28;20391;-53
2023/08/08 02:44:15;;;;;;;16.63;4.63;;;;;;;;;;5054912;28;20029;-53
2023/08/08 02:46:42;;;;;;;22.50;4.40;;;;;;;;;;5054729;28;20104;-50
2023/08/08 02:49:09;;;;;;;17.63;4.30;;;;;;;;;;5054747;28;20475;-53
2023/08/08 02:51:36;;;;;;;18.80;4.10;;;;;;;;;;5054810;28;20029;-53
2023/08/08 02:54:03;;;;;;;19.17;4.70;;;;;;;;;;5054751;28;20068;-53
2023/08/08 02:56:30;;;;;;;20.50;4.78;;;;;;;;;;5054563;28;20027;-49
2023/08/08 02:58:58;;;;;;;15.45;4.28;;;;;;;;;;5054586;28;20025;-50
2023/08/08 03:01:25;;;;;;;16.30;4.18;;;;;;;;;;5054514;28;20036;-54
2023/08/08 03:03:52;;;;;;;15.60;4.45;;;;;;;;;;5054494;28;20462;-54
2023/08/08 03:06:19;;;;;;;18.60;3.88;;;;;;;;;;5054303;28;20031;-53
2023/08/08 03:08:46;;;;;;;13.68;3.75;;;;;;;;;;5054356;28;20032;-51
2023/08/08 03:11:13;;;;;;;14.93;3.97;;;;;;;;;;5054398;28;20033;-53
2023/08/08 03:13:40;;;;;;;15.52;4.20;;;;;;;;;;5054361;28;20465;-54
2023/08/08 03:16:07;;;;;;;16.25;4.45;;;;;;;;;;5054217;28;20064;-52
2023/08/08 03:18:34;;;;;;;15.68;4.53;;;;;;;;;;5054525;28;20470;-54
2023/08/08 03:21:01;;;;;;;14.02;3.85;;;;;;;;;;5054262;28;20044;-54
2023/08/08 03:23:28;;;;;;;14.48;3.70;;;;;;;;;;5052913;28;20025;-50
2023/08/08 03:25:55;;;;;;;15.25;4.30;;;;;;;;;;5053889;28;20129;-53
2023/08/08 03:28:22;;;;;;;16.67;4.05;;;;;;;;;;5054055;28;20033;-54
2023/08/08 03:30:49;;;;;;;19.38;3.80;;;;;;;;;;5054015;28;20487;-52
2023/08/08 03:33:16;;;;;;;16.48;3.80;;;;;;;;;;5053961;28;20063;-52
2023/08/08 03:35:43;;;;;;;14.05;3.85;;;;;;;;;;5052486;28;20029;-55
2023/08/08 03:38:10;;;;;;;12.52;3.47;;;;;;;;;;5053808;28;20035;-53
2023/08/08 03:40:37;;;;;;;15.00;4.38;;;;;;;;;;5053885;28;20045;-53
2023/08/08 03:43:05;;;;;;;13.00;3.75;;;;;;;;;;5053608;28;20074;-55
2023/08/08 03:45:32;;;;;;;13.07;4.15;;;;;;;;;;5053693;28;20029;-54
2023/08/08 03:47:59;;;;;;;18.40;3.75;;;;;;;;;;5053689;28;20788;-51
2023/08/08 03:50:26;;;;;;;10.77;3.50;;;;;;;;;;5053698;28;20116;-51
2023/08/08 03:52:53;;;;;;;12.75;4.20;;;;;;;;;;5053654;28;20047;-54
2023/08/08 03:55:20;;;;;;;14.32;3.40;;;;;;;;;;5053417;28;20025;-52
2023/08/08 03:57:48;;;;;;;12.48;3.60;;;;;;;;;;5053563;28;20025;-53
2023/08/08 04:00:15;;;;;;;19.05;3.80;;;;;;;;;;5053545;28;20036;-53
2023/08/08 04:02:42;;;;;;;12.70;3.92;;;;;;;;;;5053664;28;20160;-53
2023/08/08 04:05:09;;;;;;;14.55;3.38;;;;;;;;;;5053449;28;20031;-52
2023/08/08 04:07:36;;;;;;;11.95;3.45;;;;;;;;;;5053244;28;20107;-54
2023/08/08 04:10:03;;;;;;;13.02;3.33;;;;;;;;;;5053358;28;20115;-53
2023/08/08 04:12:32;;;;;;;11.45;3.25;;;;;;;;;;5053249;28;20036;-53
2023/08/08 04:14:59;;;;;;;13.68;3.42;;;;;;;;;;5053284;28;20111;-54
2023/08/08 04:17:26;;;;;;;13.25;3.63;;;;;;;;;;5051817;28;20067;-56
2023/08/08 04:19:53;;;;;;;15.50;3.63;;;;;;;;;;5053091;28;20112;-52
2023/08/08 04:25:24;;;;;;;11.27;3.42;;;;;;;;;;5052718;28;20047;-57
2023/08/08 04:27:51;;;;;;;11.40;3.70;;;;;;;;;;5051545;28;20043;-52
2023/08/08 04:30:18;;;;;;;10.80;3.10;;;;;;;;;;5052961;28;20032;-55
2023/08/08 04:32:45;;;;;;;12.07;3.72;;;;;;;;;;5052933;28;20043;-53
2023/08/08 04:35:12;;;;;;;14.13;3.25;;;;;;;;;;5052411;28;20029;-54
2023/08/08 04:37:39;;;;;;;15.50;3.50;;;;;;;;;;5052788;28;20600;-51
2023/08/08 04:40:08;;;;;;;11.60;3.63;;;;;;;;;;5052678;28;20104;-51
2023/08/08 04:42:35;;;;;;;12.38;3.40;;;;;;;;;;5052648;28;20031;-53
2023/08/08 04:45:02;;;;;;;10.27;3.72;;;;;;;;;;5052641;28;20051;-53
2023/08/08 04:47:29;;;;;;;10.13;3.30;;;;;;;;;;5052676;28;20036;-53
2023/08/08 04:49:56;;;;;;;13.60;3.70;;;;;;;;;;5052415;28;20142;-54
2023/08/08 04:52:23;;;;;;;10.70;2.88;;;;;;;;;;5052507;28;20094;-51
2023/08/08 04:54:50;;;;;;;11.98;3.50;;;;;;;;;;5052486;28;20025;-54
2023/08/08 04:57:17;;;;;;;9.05;3.17;;;;;;;;;;5052311;28;20067;-51
2023/08/08 04:59:44;;;;;;;10.52;3.30;;;;;;;;;;5052346;28;20074;-51
2023/08/08 05:02:11;;;;;;;9.00;3.40;;;;;;;;;;5052314;28;20027;-53
2023/08/08 05:04:38;;;;;;;11.80;3.30;;;;;;;;;;5052297;28;20061;-54
2023/08/08 05:07:06;;;;;;;11.30;3.13;;;;;;;;;;5052054;28;20037;-53
2023/08/08 05:09:33;;;;;;;16.05;3.50;;;;;;;;;;5052150;28;20108;-54
2023/08/08 05:12:00;;;;;;;10.38;3.45;;;;;;;;;;5052085;28;20033;-54
2023/08/08 05:14:27;;;;;;;8.80;2.92;;;;;;;;;;5052106;28;20032;-54
2023/08/08 05:16:54;;;;;;;12.05;3.60;;;;;;;;;;5051908;28;20033;-53
2023/08/08 05:19:21;;;;;;;10.90;3.40;;;;;;;;;;5051776;28;20041;-53
2023/08/08 05:21:48;;;;;;;9.95;3.78;;;;;;;;;;5052010;28;20057;-53
2023/08/08 05:24:15;;;;;;;10.00;3.28;;;;;;;;;;5051733;28;20060;-53
2023/08/08 05:26:42;;;;;;;9.63;3.60;;;;;;;;;;5051800;28;20036;-53
2023/08/08 05:29:09;;;;;;;10.10;3.55;;;;;;;;;;5051778;28;20040;-53
2023/08/08 05:31:36;;;;;;;9.05;3.50;;;;;;;;;;5051811;28;20483;-52
2023/08/08 05:34:03;;;;;;;10.32;3.42;;;;;;;;;;5051879;28;20738;-53
2023/08/08 05:36:30;;;;;;;9.50;3.10;;;;;;;;;;5051726;28;20029;-52
2023/08/08 05:38:57;;;;;;;7.38;3.17;;;;;;;;;;5051702;28;20127;-54
2023/08/08 05:41:24;;;;;;;10.60;3.45;;;;;;;;;;5051722;28;20818;-52
2023/08/08 05:43:51;;;;;;;12.63;3.78;;;;;;;;;;5051638;28;20171;-50
2023/08/08 05:46:18;;;;;;;8.68;3.33;;;;;;;;;;5050886;28;20036;-51
2023/08/08 05:48:46;;;;;;;10.57;3.65;;;;;;;;;;5051496;28;20044;-53
2023/08/08 05:51:13;;;;;;;8.48;2.70;;;;;;;;;;5051531;28;20043;-53
2023/08/08 05:53:40;;;;;;;9.60;3.45;;;;;;;;;;5051576;28;20037;-52
2023/08/08 05:56:08;;;;;;;8.23;3.22;;;;;;;;;;5051403;28;20025;-52
2023/08/08 05:58:37;;;;;;;7.38;3.00;;;;;;;;;;5051457;28;20126;-52
2023/08/08 06:01:09;;;;;;;9.88;3.40;;;;;;;;;;5050095;28;20083;-52
2023/08/08 06:03:37;;;;;;;;;;;;;;;;;;5051883;28;20056;-51
2023/08/08 06:06:06;;;;;;;11.43;3.05;;;;;;;;;;5051280;28;20282;-53
2023/08/08 06:08:33;;;;;;;10.02;3.35;;;;;;;;;;5051272;28;20064;-53
2023/08/08 06:11:00;;;;;;;10.55;3.17;;;;;;;;;;5051420;28;20029;-52
2023/08/08 06:13:27;;;;;;;10.43;3.55;;;;;;;;;;5051371;28;20100;-52
2023/08/08 06:15:54;;;;;;;8.73;3.47;;;;;;;;;;5051210;28;20376;-52
2023/08/08 06:18:21;;;;;;;10.73;3.63;;;;;;;;;;5051285;28;20044;-53
2023/08/08 06:20:48;;;;;;;7.30;3.08;;;;;;;;;;5051354;28;20077;-49
2023/08/08 06:23:15;;;;;;;7.53;3.17;;;;;;;;;;5051284;28;20033;-52
2023/08/08 06:25:42;;;;;;;10.07;3.20;;;;;;;;;;5051029;28;20084;-54
2023/08/08 06:28:09;;;;;;;9.27;2.97;;;;;;;;;;5051084;28;20033;-48
2023/08/08 06:30:38;;;;;;;9.77;3.33;;;;;;;;;;5051193;28;20072;-48
2023/08/08 06:33:05;;;;;;;9.90;3.20;;;;;;;;;;5051149;28;20021;-51
2023/08/08 06:35:32;;;;;;;8.82;2.80;;;;;;;;;;5051067;28;20052;-52
2023/08/08 06:37:59;;;;;;;8.07;2.95;;;;;;;;;;5051187;28;20029;-48
2023/08/08 06:40:27;;;;;;;8.75;3.20;;;;;;;;;;5051046;28;20124;-51
2023/08/08 06:42:55;;;;;;;9.20;3.20;;;;;;;;;;5051076;28;20544;-52
2023/08/08 06:45:22;;;;;;;10.23;3.42;;;;;;;;;;5050959;28;20033;-53
2023/08/08 06:47:49;;;;;;;8.75;3.35;;;;;;;;;;5050894;28;20523;-47
2023/08/08 06:50:16;;;;;;;8.40;2.88;;;;;;;;;;5050981;28;20108;-52
2023/08/08 06:52:43;;;;;;;9.45;3.45;;;;;;;;;;5050943;28;20025;-51
2023/08/08 06:55:11;;;;;;;11.98;3.28;;;;;;;;;;5050923;28;20484;-51
2023/08/08 06:57:38;;;;;;;7.15;2.75;;;;;;;;;;5052086;28;20442;-49
2023/08/08 07:00:06;;;;;;;10.23;3.22;;;;;;;;;;5054650;28;20029;-53
2023/08/08 07:02:33;;;;;;;8.90;3.00;;;;;;;;;;5054628;28;20029;-50
2023/08/08 07:05:00;;;;;;;9.95;3.10;;;;;;;;;;5054445;28;20032;-49
2023/08/08 07:07:29;;;;;;;7.80;3.20;;;;;;;;;;5054390;28;20412;-52
2023/08/08 07:09:56;;;;;;;8.43;3.10;;;;;;;;;;5054395;28;20048;-52
2023/08/08 07:12:23;;;;;;;9.20;3.20;;;;;;;;;;5054406;28;20458;-53
2023/08/08 07:14:50;;;;;;;9.05;2.80;;;;;;;;;;5054328;28;20163;-48
2023/08/08 07:17:17;;;;;;;9.00;3.10;;;;;;;;;;5054119;28;20021;-52
2023/08/08 07:19:44;;;;;;;7.70;3.28;;;;;;;;;;5054279;28;20422;-52
2023/08/08 07:22:11;;;;;;;9.13;3.53;;;;;;;;;;5054237;28;20605;-52
2023/08/08 07:24:38;;;;;;;9.82;3.10;;;;;;;;;;5054016;28;20507;-49
2023/08/08 07:27:06;;;;;;;10.43;3.47;;;;;;;;;;5054271;28;20033;-47
2023/08/08 07:29:33;;;;;;;6.32;2.78;;;;;;;;;;5054078;28;20029;-47
2023/08/08 07:31:59;;;;;;;7.00;3.00;;;;;;;;;;5054082;28;20028;-52
2023/08/08 07:34:26;;;;;;;7.03;2.95;;;;;;;;;;5054037;28;20021;-51
2023/08/08 07:36:54;;;;;;;8.25;2.90;;;;;;;;;;5053895;28;20099;-50
2023/08/08 07:39:21;;;;;;;7.60;2.95;;;;;;;;;;5053927;28;20033;-51
2023/08/08 07:41:48;;;;;;;9.07;3.35;;;;;;;;;;5053801;28;20029;-52
2023/08/08 07:44:15;;;;;;;8.02;2.75;;;;;;;;;;5052533;28;20035;-51
2023/08/08 07:46:42;;;;;;;9.25;2.97;;;;;;;;;;5053692;28;20025;-53
2023/08/08 07:49:09;;;;;;;8.82;3.22;;;;;;;;;;5053649;28;20476;-53
2023/08/08 07:51:36;;;;;;;8.77;3.15;;;;;;;;;;5053688;28;20044;-52
2023/08/08 07:54:08;;;;;;;9.18;3.22;;;;;;;;;;5053596;28;20530;-51
2023/08/08 07:56:38;;;;;;;7.83;3.03;;;;;;;;;;5053478;28;20033;-51
2023/08/08 07:59:05;;;;;;;6.63;3.00;;;;;;;;;;5053411;28;20060;-52
2023/08/08 08:01:32;;;;;;;9.07;3.30;;;;;;;;;;5053477;28;20033;-52
2023/08/08 08:04:00;;;;;;;6.57;2.80;;;;;;;;;;5053461;28;20083;-53
2023/08/08 08:06:27;;;;;;;6.97;2.72;;;;;;;;;;5053260;28;20025;-52
2023/08/08 08:08:54;;;;;;;10.38;3.20;;;;;;;;;;5052561;28;20041;-53
2023/08/08 08:11:21;;;;;;;9.18;3.35;;;;;;;;;;5053090;28;20549;-51
2023/08/08 08:13:48;;;;;;;8.85;3.20;;;;;;;;;;5053615;28;20029;-53
2023/08/08 08:16:15;;;;;;;8.57;3.15;;;;;;;;;;5053122;28;20067;-53
2023/08/08 08:18:42;;;;;;;10.02;3.20;;;;;;;;;;5053085;28;20090;-53
2023/08/08 08:21:09;;;;;;;7.55;3.17;;;;;;;;;;5053137;28;20039;-51
2023/08/08 08:23:36;;;;;;;7.88;2.83;;;;;;;;;;5053097;28;20021;-52
2023/08/08 08:26:03;;;;;;;9.07;2.70;;;;;;;;;;5052747;28;20144;-54
2023/08/08 08:28:30;;;;;;;8.45;2.97;;;;;;;;;;5052825;28;20029;-54
2023/08/08 08:30:57;;;;;;;9.50;3.00;;;;;;;;;;5052972;28;20021;-54
2023/08/08 08:33:24;;;;;;;8.77;3.15;;;;;;;;;;5052833;28;20542;-55
2023/08/08 08:35:51;;;;;;;10.05;3.22;;;;;;;;;;5052651;28;20071;-50
2023/08/08 08:38:18;;;;;;;8.70;2.97;;;;;;;;;;5052758;28;20040;-50
2023/08/08 08:40:48;;;;;;;9.20;3.10;;;;;;;;;;5052645;28;20510;-53
2023/08/08 08:43:16;;;;;;;8.70;3.03;;;;;;;;;;5052680;28;20372;-50
2023/08/08 08:45:44;;;;;;;6.90;3.05;;;;;;;;;;5051299;28;20102;-50
2023/08/08 08:48:11;;;;;;;8.15;2.80;;;;;;;;;;5052485;28;20507;-50
2023/08/08 08:50:39;;;;;;;8.60;3.30;;;;;;;;;;5052622;28;20495;-51
2023/08/08 08:53:07;;;;;;;8.23;2.90;;;;;;;;;;5052435;28;20032;-49
2023/08/08 08:55:34;;;;;;;8.88;3.70;;;;;;;;;;5052312;28;20029;-54
2023/08/08 08:58:02;;;;;;;9.05;2.95;;;;;;;;;;5052443;28;20037;-49
2023/08/08 09:00:29;;;;;;;7.03;2.55;;;;;;;;;;5052399;28;20024;-50
2023/08/08 09:02:56;;;;;;;10.60;3.25;;;;;;;;;;5052673;28;20420;-50
2023/08/08 09:05:25;;;;;;;7.30;3.03;;;;;;;;;;5052178;28;20029;-50
2023/08/08 09:07:52;;;;;;;8.00;3.17;;;;;;;;;;5052180;28;20426;-52
2023/08/08 09:10:20;;;;;;;9.43;3.05;;;;;;;;;;5051978;28;20127;-49
2023/08/08 09:12:47;;;;;;;8.52;2.80;;;;;;;;;;5051829;28;20043;-50
2023/08/08 09:15:14;;;;;;;7.80;3.13;;;;;;;;;;5052003;28;20062;-50
2023/08/08 09:17:45;;;;;;;10.38;3.50;;;;;;;;;;5052132;28;20040;-50
2023/08/08 09:20:14;;;;;;;7.28;3.15;;;;;;;;;;5052056;28;20033;-49
2023/08/08 09:22:41;;;;;;;8.57;3.30;;;;;;;;;;5051369;28;20028;-55
2023/08/08 09:25:08;;;;;;;8.38;3.40;;;;;;;;;;5051662;28;20064;-49
2023/08/08 09:27:36;;;;;;;8.82;3.13;;;;;;;;;;5051623;28;20151;-53
2023/08/08 09:30:03;;;;;;;7.20;3.00;;;;;;;;;;5050366;28;20474;-47
2023/08/08 09:32:31;;;;;;;8.43;3.13;;;;;;;;;;5051488;28;20052;-50
2023/08/08 09:34:59;;;;;;;8.50;3.25;;;;;;;;;;5051651;28;20028;-52
2023/08/08 09:37:26;;;;;;;7.88;3.15;;;;;;;;;;5051745;28;20021;-54
2023/08/08 09:40:03;;;;;;;9.13;3.90;;;;;;;;;;5051719;28;20029;-48
2023/08/08 09:42:31;;;;;;;13.00;3.55;;;;;;;;;;5051691;28;20033;-48
2023/08/08 09:44:58;;;;;;;13.18;3.70;;;;;;;;;;5051439;28;20029;-49
2023/08/08 09:47:30;;;;;;;9.27;3.58;;;;;;;;;;5051519;28;20021;-50
2023/08/08 09:50:01;;;;;;;11.35;3.40;;;;;;;;;;5051580;28;20102;-49
2023/08/08 09:52:29;;;;;;;14.00;3.80;;;;;;;;;;5051768;28;20052;-50
2023/08/08 09:54:56;;;;;;;9.18;3.60;;;;;;;;;;5051437;28;20035;-50
2023/08/08 09:57:26;;;;;;;10.60;4.03;;;;;;;;;;5051403;28;20037;-48
2023/08/08 09:59:54;;;;;;;9.93;3.33;;;;;;;;;;5051481;28;20025;-48
2023/08/08 10:02:20;;;;;;;13.55;4.18;;;;;;;;;;5051536;28;20033;-49
2023/08/08 10:04:48;;;;;;;17.42;4.25;;;;;;;;;;5051218;28;20383;-49
2023/08/08 10:07:15;;;;;;;13.63;4.32;;;;;;;;;;5051407;28;20502;-49
2023/08/08 10:09:42;;;;;;;10.32;4.00;;;;;;;;;;5051463;28;20094;-48
2023/08/08 10:12:09;;;;;;;14.00;3.90;;;;;;;;;;5051142;28;20522;-48
2023/08/08 10:14:38;;;;;;;9.77;3.95;;;;;;;;;;5051385;28;20036;-50
2023/08/08 10:17:06;;;;;;;15.48;4.18;;;;;;;;;;5051333;28;20491;-52
2023/08/08 10:19:33;;;;;;;14.60;4.32;;;;;;;;;;5051279;28;20029;-53
2023/08/08 10:22:04;;;;;;;13.23;4.40;;;;;;;;;;5051031;28;20039;-49
2023/08/08 10:24:35;;;;;;;12.32;4.45;;;;;;;;;;5050729;28;20066;-47
2023/08/08 10:27:03;;;;;;;9.60;4.07;;;;;;;;;;5050962;28;20076;-48
2023/08/08 10:29:32;;;;;;;14.40;4.93;;;;;;;;;;5051151;28;20037;-51
2023/08/08 10:31:59;;;;;;;10.52;4.00;;;;;;;;;;5051292;28;20025;-49
2023/08/08 10:34:38;;;;;;;11.48;4.13;;;;;;;;;;5055004;28;20029;-52
2023/08/08 10:37:06;;;;;;;9.63;3.97;;;;;;;;;;5054679;28;20025;-53
2023/08/08 10:39:33;;;;;;;12.05;4.05;;;;;;;;;;5053110;28;20036;-48
2023/08/08 10:42:04;;;;;;;13.98;4.35;;;;;;;;;;5054986;28;20121;-48
2023/08/08 10:44:32;;;;;;;8.85;3.97;;;;;;;;;;5056938;28;20494;-49
2023/08/08 10:47:01;;;;;;;11.85;3.83;;;;;;;;;;5063657;28;20028;-51
2023/08/08 10:49:28;;;;;;;11.80;4.57;;;;;;;;;;5055332;28;20033;-50
2023/08/08 10:51:55;;;;;;;10.40;4.18;;;;;;;;;;5054863;28;20029;-51
2023/08/08 10:54:27;;;;;;;14.43;4.20;;;;;;;;;;5054047;28;20021;-51
2023/08/08 10:56:55;;;;;;;10.13;4.40;;;;;;;;;;5051392;28;20064;-55
2023/08/08 10:59:26;;;;;;;12.18;4.40;;;;;;;;;;5054547;28;20017;-49
2023/08/08 11:01:56;;;;;;;10.55;4.25;;;;;;;;;;5054244;28;20134;-52
2023/08/08 11:04:25;;;;;;;11.07;4.05;;;;;;;;;;5054432;28;20029;-47
2023/08/08 11:06:54;;;;;;;14.45;4.60;;;;;;;;;;5054388;28;20095;-52
2023/08/08 11:09:21;;;;;;;16.42;4.63;;;;;;;;;;5054482;28;20032;-50
2023/08/08 11:11:48;;;;;;;10.82;4.13;;;;;;;;;;5054461;28;20100;-51
2023/08/08 11:14:17;;;;;;;9.82;4.28;;;;;;;;;;5054159;28;20033;-50
2023/08/08 11:16:44;;;;;;;12.38;4.18;;;;;;;;;;5054279;28;20112;-52
2023/08/08 11:19:16;;;;;;;10.25;3.80;;;;;;;;;;5053490;28;20017;-50
2023/08/08 11:21:46;;;;;;;14.32;4.43;;;;;;;;;;5054040;28;20032;-47
2023/08/08 11:24:14;;;;;;;14.98;4.43;;;;;;;;;;5052537;28;20031;-52
2023/08/08 11:26:43;;;;;;;12.75;4.30;;;;;;;;;;5054062;28;20033;-52
2023/08/08 11:29:10;;;;;;;14.80;4.25;;;;;;;;;;5053942;28;20045;-49
2023/08/08 11:31:38;;;;;;;16.20;4.28;;;;;;;;;;5053971;28;20505;-50
2023/08/08 11:34:05;;;;;;;11.73;4.00;;;;;;;;;;5054052;28;20021;-51
2023/08/08 11:36:36;;;;;;;16.25;4.93;;;;;;;;;;5053902;28;20025;-47
2023/08/08 11:39:10;;;;;;;13.70;4.18;;;;;;;;;;5054187;28;20505;-47
2023/08/08 11:41:38;;;;;;;16.88;4.65;;;;;;;;;;5053892;28;20383;-48
2023/08/08 11:44:05;;;;;;;9.90;4.05;;;;;;;;;;5052847;28;20029;-51
2023/08/08 11:46:32;;;;;;;11.82;4.13;;;;;;;;;;5053762;28;20029;-47
2023/08/08 11:49:06;;;;;;;12.77;4.32;;;;;;;;;;5053753;28;20465;-49
2023/08/08 11:51:34;;;;;;;11.20;4.07;;;;;;;;;;5053655;28;20435;-49
2023/08/08 11:54:03;;;;;;;14.50;4.70;;;;;;;;;;5053725;28;20059;-48
2023/08/08 11:56:34;;;;;;;9.35;3.97;;;;;;;;;;5053567;28;20104;-48
2023/08/08 11:59:01;;;;;;;12.77;4.15;;;;;;;;;;5053583;28;20029;-48
2023/08/08 12:01:28;;;;;;;12.05;4.15;;;;;;;;;;5053472;28;20025;-51
2023/08/08 12:03:55;;;;;;;15.02;4.15;;;;;;;;;;5053521;28;20025;-48
2023/08/08 12:06:22;;;;;;;14.55;4.15;;;;;;;;;;5053322;28;20151;-52
2023/08/08 12:08:50;;;;;;;10.82;4.32;;;;;;;;;;5053332;28;20036;-48
2023/08/08 12:11:17;;;;;;;10.50;3.90;;;;;;;;;;5053274;28;20388;-51
2023/08/08 12:13:45;;;;;;;14.90;4.03;;;;;;;;;;5053260;28;20032;-50
2023/08/08 12:16:13;;;;;;;14.38;4.15;;;;;;;;;;5053194;28;20025;-52
2023/08/08 12:18:40;;;;;;;9.10;4.10;;;;;;;;;;5053196;28;20025;-51
2023/08/08 12:21:08;;;;;;;10.38;3.80;;;;;;;;;;5053114;28;20021;-50
2023/08/08 12:23:36;;;;;;;14.02;3.95;;;;;;;;;;5053154;28;20021;-51
2023/08/08 12:26:08;;;;;;;12.23;4.10;;;;;;;;;;5052832;28;20503;-49
2023/08/08 12:28:35;;;;;;;8.27;3.50;;;;;;;;;;5053005;28;20026;-53
2023/08/08 12:31:02;;;;;;;8.35;3.85;;;;;;;;;;5052946;28;20114;-48
2023/08/08 12:33:29;;;;;;;9.13;3.95;;;;;;;;;;5052839;28;20028;-48
2023/08/08 12:35:56;;;;;;;11.57;4.00;;;;;;;;;;5052754;28;20029;-54
2023/08/08 12:38:23;;;;;;;12.20;4.10;;;;;;;;;;5052808;28;20032;-54
2023/08/08 12:40:50;;;;;;;9.23;3.75;;;;;;;;;;5052804;28;20021;-53
2023/08/08 12:43:17;;;;;;;13.20;4.07;;;;;;;;;;5052736;28;20059;-53
2023/08/08 12:45:47;;;;;;;10.05;3.70;;;;;;;;;;5052602;28;20025;-53
2023/08/08 12:48:14;;;;;;;11.82;4.22;;;;;;;;;;5052565;28;20025;-53
2023/08/08 12:50:42;;;;;;;10.25;4.03;;;;;;;;;;5052604;28;20021;-55
2023/08/08 12:53:09;;;;;;;13.18;4.00;;;;;;;;;;5052487;28;20083;-54
2023/08/08 12:55:37;;;;;;;11.20;3.83;;;;;;;;;;5052200;28;20403;-53
2023/08/08 12:58:04;;;;;;;14.02;3.80;;;;;;;;;;5052340;28;20032;-53
2023/08/08 13:00:32;;;;;;;10.65;4.50;;;;;;;;;;5052390;28;20071;-54
2023/08/08 13:02:59;;;;;;;8.00;3.78;;;;;;;;;;5052407;28;20021;-54
2023/08/08 13:05:26;;;;;;;12.32;4.30;;;;;;;;;;5052307;28;20100;-54
2023/08/08 13:07:53;;;;;;;10.63;4.03;;;;;;;;;;5052279;28;20047;-54
2023/08/08 13:10:20;;;;;;;13.80;4.13;;;;;;;;;;5052237;28;20074;-54
2023/08/08 13:12:48;;;;;;;10.60;4.00;;;;;;;;;;5052218;28;20029;-51
2023/08/08 13:15:15;;;;;;;13.43;4.40;;;;;;;;;;5052073;28;20503;-54
2023/08/08 13:17:42;;;;;;;11.75;4.18;;;;;;;;;;5052213;28;20108;-54
2023/08/08 13:20:09;;;;;;;16.08;4.40;;;;;;;;;;5052135;28;20028;-54
2023/08/08 13:22:36;;;;;;;11.40;4.15;;;;;;;;;;5051950;28;20079;-52
2023/08/08 13:25:04;;;;;;;12.23;3.88;;;;;;;;;;5051666;28;20053;-52
2023/08/08 13:27:31;;;;;;;13.18;4.28;;;;;;;;;;5051768;28;20112;-55
2023/08/08 13:29:58;;;;;;;13.50;4.45;;;;;;;;;;5051945;28;20119;-53
2023/08/08 13:32:25;;;;;;;12.02;3.90;;;;;;;;;;5051846;28;20048;-53
2023/08/08 13:34:52;;;;;;;11.82;3.67;;;;;;;;;;5051796;28;20024;-54
2023/08/08 13:37:19;;;;;;;11.13;3.75;;;;;;;;;;5051829;28;20113;-51
2023/08/08 13:39:46;;;;;;;13.50;4.78;;;;;;;;;;5051772;28;20047;-50
2023/08/08 13:42:13;;;;;;;15.25;4.68;;;;;;;;;;5051697;28;20033;-54
2023/08/08 13:44:40;;;;;;;15.13;3.97;;;;;;;;;;5051647;28;20100;-52
2023/08/08 13:47:07;;;;;;;14.57;4.70;;;;;;;;;;5051676;28;20021;-50
2023/08/08 13:49:35;;;;;;;11.30;4.20;;;;;;;;;;5051597;28;20425;-52
2023/08/08 13:52:03;;;;;;;16.92;4.57;;;;;;;;;;5051614;28;20058;-51
2023/08/08 13:54:30;;;;;;;12.40;4.57;;;;;;;;;;5051511;28;20021;-52
2023/08/08 13:56:57;;;;;;;12.05;4.45;;;;;;;;;;5051605;28;20025;-54
2023/08/08 13:59:26;;;;;;;20.35;4.30;;;;;;;;;;5051483;28;20037;-52
2023/08/08 14:01:53;;;;;;;19.48;4.78;;;;;;;;;;5051537;28;20095;-52
2023/08/08 14:04:20;;;;;;;19.40;4.47;;;;;;;;;;5051467;28;20086;-52
2023/08/08 14:06:47;;;;;;;14.63;4.35;;;;;;;;;;5051472;28;20017;-53
2023/08/08 14:09:14;;;;;;;15.70;4.55;;;;;;;;;;5055383;28;20044;-53
2023/08/08 14:11:41;;;;;;;16.95;5.07;;;;;;;;;;5055594;28;20021;-52
2023/08/08 14:14:08;;;;;;;15.18;4.72;;;;;;;;;;5055555;28;20032;-51
2023/08/08 14:16:35;;;;;;;21.15;4.72;;;;;;;;;;5055418;28;20128;-52
2023/08/08 14:19:02;;;;;;;14.13;4.32;;;;;;;;;;5055499;28;20037;-53
2023/08/08 14:21:29;;;;;;;32.78;5.07;;;;;;;;;;5055404;28;20439;-54
2023/08/08 14:23:56;;;;;;;23.92;5.22;;;;;;;;;;5055398;28;20028;-50
2023/08/08 14:26:23;;;;;;;34.03;4.90;;;;;;;;;;5055087;28;20176;-53
2023/08/08 14:28:50;;;;;;;24.35;5.40;;;;;;;;;;5055205;28;20051;-52
2023/08/08 14:31:17;;;;;;;21.23;4.90;;;;;;;;;;5055265;28;20037;-53
2023/08/08 14:33:44;;;;;;;19.10;4.70;;;;;;;;;;5055249;28;20692;-52
2023/08/08 14:36:11;;;;;;;24.58;5.43;;;;;;;;;;5055040;28;20437;-52
2023/08/08 14:38:38;;;;;;;47.05;5.90;;;;;;;;;;5055151;28;20032;-52